createdAt,value
2018-02-23T00:00:23.713Z,20.62
2018-02-23T00:02:52.729Z,20.52
2018-02-23T00:05:21.655Z,20.45
2018-02-23T00:09:25.235Z,20.35
2018-02-23T00:13:24.573Z,20.35
2018-02-23T00:15:53.744Z,20.36
2018-02-23T00:20:22.701Z,20.30
2018-02-23T00:22:51.710Z,20.30
2018-02-23T00:25:20.692Z,20.27
2018-02-23T00:27:49.647Z,20.25
2018-02-23T00:30:18.668Z,20.21
2018-02-23T00:32:47.729Z,20.17
2018-02-23T00:35:16.768Z,20.15
2018-02-23T00:37:45.660Z,20.14
2018-02-23T00:40:50.743Z,20.19
2018-02-23T00:43:19.675Z,20.21
2018-02-23T00:45:48.667Z,20.26
2018-02-23T00:48:17.738Z,20.26
2018-02-23T00:50:46.671Z,20.29
2018-02-23T00:53:15.722Z,20.36
2018-02-23T00:55:44.690Z,20.26
2018-02-23T00:58:13.752Z,20.37
2018-02-23T01:00:42.796Z,20.35
2018-02-23T01:03:11.668Z,20.37
2018-02-23T01:05:40.660Z,20.33
2018-02-23T01:10:06.751Z,20.38
2018-02-23T01:12:35.744Z,20.41
2018-02-23T01:15:04.772Z,20.40
2018-02-23T01:17:33.713Z,20.29
2018-02-23T01:20:02.744Z,20.32
2018-02-23T01:22:31.714Z,21.02
2018-02-23T01:25:00.765Z,21.59
2018-02-23T01:27:29.737Z,21.92
2018-02-23T01:29:58.770Z,21.80
2018-02-23T01:32:27.736Z,21.26
2018-02-23T01:34:56.751Z,21.01
2018-02-23T01:37:25.754Z,20.75
2018-02-23T01:42:32.716Z,20.63
2018-02-23T01:45:01.676Z,20.60
2018-02-23T01:47:30.636Z,20.59
2018-02-23T01:49:59.703Z,20.41
2018-02-23T01:52:28.640Z,20.49
2018-02-23T01:54:57.697Z,20.52
2018-02-23T01:57:26.641Z,20.52
2018-02-23T01:59:55.616Z,20.56
2018-02-23T02:02:24.734Z,20.54
2018-02-23T02:04:53.673Z,20.54
2018-02-23T02:07:22.663Z,20.43
2018-02-23T02:11:45.749Z,20.28
2018-02-23T02:14:14.671Z,20.20
2018-02-23T02:16:43.744Z,20.20
2018-02-23T02:19:12.698Z,20.15
2018-02-23T02:21:41.695Z,20.45
2018-02-23T02:24:10.627Z,20.36
2018-02-23T02:26:39.706Z,20.33
2018-02-23T02:29:08.716Z,20.37
2018-02-23T02:31:37.784Z,20.33
2018-02-23T02:34:06.858Z,20.29
2018-02-23T02:36:35.860Z,20.26
2018-02-23T02:39:04.639Z,20.30
2018-02-23T02:41:33.744Z,20.24
2018-02-23T02:45:13.475Z,21.26
2018-02-23T02:47:41.866Z,21.71
2018-02-23T02:50:10.777Z,21.69
2018-02-23T02:52:39.743Z,21.28
2018-02-23T02:55:08.786Z,20.78
2018-02-23T02:57:37.757Z,20.69
2018-02-23T03:00:06.756Z,20.76
2018-02-23T03:02:35.756Z,20.79
2018-02-23T03:06:15.504Z,20.52
2018-02-23T03:08:44.494Z,20.61
2018-02-23T03:11:13.740Z,20.57
2018-02-23T03:13:42.743Z,20.36
2018-02-23T03:16:11.674Z,20.33
2018-02-23T03:19:10.584Z,20.25
2018-02-23T03:24:03.402Z,20.27
2018-02-23T03:26:32.681Z,20.34
2018-02-23T03:29:01.672Z,20.22
2018-02-23T03:31:30.649Z,20.18
2018-02-23T03:33:59.745Z,20.14
2018-02-23T03:36:28.778Z,20.20
2018-02-23T03:39:03.450Z,20.13
2018-02-23T03:41:32.646Z,20.07
2018-02-23T03:44:02.208Z,20.03
2018-02-23T03:46:31.671Z,20.03
2018-02-23T03:49:00.822Z,20.07
2018-02-23T03:51:29.665Z,20.17
2018-02-23T03:53:58.855Z,20.13
2018-02-23T03:56:27.699Z,20.22
2018-02-23T03:58:56.623Z,20.17
2018-02-23T04:01:25.666Z,20.16
2018-02-23T04:03:54.664Z,20.16
2018-02-23T04:06:23.660Z,20.16
2018-02-23T04:08:52.705Z,20.17
2018-02-23T04:11:22.441Z,20.17
2018-02-23T04:13:51.620Z,20.17
2018-02-23T04:16:20.855Z,20.14
2018-02-23T04:18:49.712Z,20.13
2018-02-23T04:21:18.726Z,20.07
2018-02-23T04:23:47.736Z,20.04
2018-02-23T04:26:16.716Z,20.03
2018-02-23T04:28:45.673Z,20.03
2018-02-23T04:31:14.615Z,20.03
2018-02-23T04:33:43.639Z,19.96
2018-02-23T04:36:12.716Z,20.23
2018-02-23T04:39:39.720Z,21.46
2018-02-23T04:42:08.689Z,21.68
2018-02-23T04:44:37.691Z,21.59
2018-02-23T04:49:47.589Z,20.60
2018-02-23T04:52:16.629Z,20.53
2018-02-23T04:54:45.688Z,20.48
2018-02-23T04:57:14.680Z,20.48
2018-02-23T04:59:43.696Z,20.45
2018-02-23T05:02:14.320Z,20.40
2018-02-23T05:04:43.457Z,20.37
2018-02-23T05:07:12.651Z,20.43
2018-02-23T05:09:41.638Z,20.43
2018-02-23T05:12:10.676Z,20.42
2018-02-23T05:14:39.717Z,20.34
2018-02-23T05:17:08.738Z,20.32
2018-02-23T05:19:37.748Z,20.29
2018-02-23T05:22:06.732Z,20.25
2018-02-23T05:24:35.709Z,20.20
2018-02-23T05:27:04.635Z,20.19
2018-02-23T05:29:33.685Z,20.17
2018-02-23T05:32:02.639Z,20.14
2018-02-23T05:34:31.647Z,20.11
2018-02-23T05:37:00.680Z,20.14
2018-02-23T05:39:29.771Z,20.11
2018-02-23T05:41:58.708Z,20.07
2018-02-23T05:44:27.643Z,20.10
2018-02-23T05:46:56.811Z,20.06
2018-02-23T05:49:25.690Z,20.05
2018-02-23T05:51:54.660Z,20.28
2018-02-23T05:55:56.661Z,21.48
2018-02-23T05:58:25.744Z,21.90
2018-02-23T06:00:54.767Z,21.97
2018-02-23T06:03:23.744Z,21.14
2018-02-23T06:05:52.726Z,20.87
2018-02-23T06:08:21.736Z,20.80
2018-02-23T06:10:50.683Z,20.74
2018-02-23T06:13:19.712Z,20.61
2018-02-23T06:15:54.572Z,20.50
2018-02-23T06:18:29.620Z,20.43
2018-02-23T06:20:58.701Z,20.33
2018-02-23T06:23:28.205Z,20.30
2018-02-23T06:25:57.745Z,20.30
2018-02-23T06:28:27.308Z,20.27
2018-02-23T06:30:55.748Z,20.30
2018-02-23T06:33:24.672Z,20.26
2018-02-23T06:35:53.773Z,20.18
2018-02-23T06:41:15.569Z,20.20
2018-02-23T06:43:44.757Z,20.18
2018-02-23T06:46:13.690Z,20.19
2018-02-23T06:48:43.528Z,20.20
2018-02-23T06:51:13.234Z,20.18
2018-02-23T06:54:53.296Z,20.20
2018-02-23T06:57:22.963Z,20.24
2018-02-23T07:00:50.387Z,20.29
2018-02-23T07:03:19.651Z,20.27
2018-02-23T07:05:48.779Z,20.25
2018-02-23T07:08:17.708Z,20.22
2018-02-23T07:10:46.971Z,20.23
2018-02-23T07:13:15.512Z,20.23
2018-02-23T07:15:44.688Z,20.16
2018-02-23T07:18:13.616Z,20.17
2018-02-23T07:20:42.676Z,20.17
2018-02-23T07:23:11.948Z,20.15
2018-02-23T07:25:45.452Z,20.15
2018-02-23T07:28:14.422Z,20.20
2018-02-23T07:30:44.035Z,20.18
2018-02-23T07:33:13.716Z,20.64
2018-02-23T07:38:12.500Z,21.80
2018-02-23T07:40:41.686Z,22.01
2018-02-23T07:43:10.977Z,21.19
2018-02-23T07:45:39.588Z,20.78
2018-02-23T07:48:08.655Z,20.55
2018-02-23T07:51:20.687Z,20.51
2018-02-23T07:53:49.638Z,20.49
2018-02-23T07:56:18.703Z,20.43
2018-02-23T07:58:47.707Z,20.42
2018-02-23T08:01:16.730Z,20.45
2018-02-23T08:03:45.700Z,20.45
2018-02-23T08:06:14.694Z,20.44
2018-02-23T08:08:43.782Z,20.72
2018-02-23T08:11:12.662Z,20.63
2018-02-23T08:13:41.781Z,20.56
2018-02-23T08:16:10.677Z,20.69
2018-02-23T08:18:39.728Z,20.53
2018-02-23T08:21:08.703Z,20.63
2018-02-23T08:23:38.236Z,20.55
2018-02-23T08:26:07.632Z,20.44
2018-02-23T08:28:36.706Z,20.41
2018-02-23T08:31:05.610Z,20.38
2018-02-23T08:33:34.724Z,20.41
2018-02-23T08:36:03.764Z,20.67
2018-02-23T08:38:32.617Z,20.62
2018-02-23T08:41:01.792Z,20.81
2018-02-23T08:43:30.683Z,20.72
2018-02-23T08:45:59.641Z,20.68
2018-02-23T08:48:28.769Z,20.58
2018-02-23T08:50:57.734Z,20.46
2018-02-23T08:53:26.607Z,20.56
2018-02-23T08:55:55.657Z,20.91
2018-02-23T08:58:24.693Z,21.61
2018-02-23T09:00:53.662Z,21.99
2018-02-23T09:03:22.704Z,22.21
2018-02-23T09:05:51.673Z,21.81
2018-02-23T09:08:20.758Z,21.35
2018-02-23T09:10:49.680Z,21.14
2018-02-23T09:13:18.732Z,21.05
2018-02-23T09:15:47.649Z,20.95
2018-02-23T09:18:16.668Z,20.87
2018-02-23T09:20:45.667Z,20.79
2018-02-23T09:23:14.686Z,20.76
2018-02-23T09:25:43.782Z,20.70
2018-02-23T09:28:12.680Z,20.67
2018-02-23T09:30:41.750Z,20.62
2018-02-23T09:35:00.716Z,20.58
2018-02-23T09:37:29.786Z,20.55
2018-02-23T09:39:58.771Z,20.49
2018-02-23T09:42:28.160Z,20.44
2018-02-23T09:44:57.372Z,20.42
2018-02-23T09:47:26.617Z,20.41
2018-02-23T09:49:55.758Z,20.41
2018-02-23T09:52:24.889Z,20.45
2018-02-23T09:54:53.023Z,20.42
2018-02-23T09:57:22.634Z,20.48
2018-02-23T09:59:51.629Z,20.48
2018-02-23T10:02:20.771Z,20.50
2018-02-23T10:04:49.695Z,20.55
2018-02-23T10:07:18.606Z,20.67
2018-02-23T10:09:47.721Z,20.72
2018-02-23T10:12:16.664Z,20.77
2018-02-23T10:14:45.823Z,20.75
2018-02-23T10:17:14.750Z,20.67
2018-02-23T10:19:43.868Z,20.72
2018-02-23T10:22:12.702Z,20.68
2018-02-23T10:24:42.039Z,21.05
2018-02-23T10:27:10.676Z,21.15
2018-02-23T10:29:39.632Z,21.12
2018-02-23T10:32:08.686Z,21.19
2018-02-23T10:34:37.624Z,21.06
2018-02-23T10:37:06.682Z,21.02
2018-02-23T10:39:35.850Z,21.08
2018-02-23T10:42:04.754Z,21.14
2018-02-23T10:47:24.768Z,21.09
2018-02-23T10:49:53.744Z,21.10
2018-02-23T10:52:22.771Z,21.22
2018-02-23T10:54:51.906Z,21.20
2018-02-23T10:58:18.632Z,21.15
2018-02-23T11:00:47.667Z,21.21
2018-02-23T11:03:16.715Z,21.16
2018-02-23T11:05:45.703Z,20.93
2018-02-23T11:08:15.700Z,21.17
2018-02-23T11:10:44.595Z,21.26
2018-02-23T11:13:13.648Z,21.19
2018-02-23T11:15:42.650Z,21.31
2018-02-23T11:18:11.690Z,21.31
2018-02-23T11:20:40.773Z,21.42
2018-02-23T11:23:09.737Z,21.45
2018-02-23T11:28:16.596Z,21.57
2018-02-23T11:30:45.730Z,21.59
2018-02-23T11:33:14.635Z,21.58
2018-02-23T11:35:43.704Z,21.57
2018-02-23T11:38:12.668Z,21.55
2018-02-23T11:42:53.282Z,21.47
2018-02-23T11:45:22.558Z,21.56
2018-02-23T11:47:51.761Z,21.55
2018-02-23T11:50:21.659Z,21.51
2018-02-23T11:52:51.028Z,21.52
2018-02-23T11:55:19.563Z,21.48
2018-02-23T12:00:28.627Z,21.57
2018-02-23T12:02:57.753Z,21.55
2018-02-23T12:05:26.856Z,21.56
2018-02-23T12:07:56.164Z,21.54
2018-02-23T12:10:25.722Z,21.60
2018-02-23T12:12:54.724Z,21.59
2018-02-23T12:16:32.663Z,21.51
2018-02-23T12:19:01.741Z,21.56
2018-02-23T12:21:30.871Z,21.60
2018-02-23T12:24:00.175Z,21.57
2018-02-23T12:26:29.636Z,21.59
2018-02-23T12:28:58.744Z,21.50
2018-02-23T12:31:54.615Z,21.41
2018-02-23T12:34:23.709Z,21.34
2018-02-23T12:36:52.712Z,21.34
2018-02-23T12:39:21.696Z,21.25
2018-02-23T12:41:50.638Z,21.21
2018-02-23T12:44:19.828Z,21.17
2018-02-23T12:46:48.701Z,21.18
2018-02-23T12:49:17.738Z,21.11
2018-02-23T12:51:46.720Z,21.11
2018-02-23T12:54:15.736Z,21.08
2018-02-23T12:56:44.691Z,21.07
2018-02-23T12:59:13.754Z,21.08
2018-02-23T13:04:47.451Z,21.02
2018-02-23T13:07:16.475Z,21.05
2018-02-23T13:09:45.742Z,21.10
2018-02-23T13:12:14.763Z,21.19
2018-02-23T13:14:49.575Z,21.24
2018-02-23T13:17:18.782Z,21.30
2018-02-23T13:19:47.891Z,21.25
2018-02-23T13:24:49.776Z,21.00
2018-02-23T13:27:20.938Z,20.90
2018-02-23T13:29:49.534Z,20.99
2018-02-23T13:32:19.570Z,21.13
2018-02-23T13:39:35.693Z,21.10
2018-02-23T13:42:04.768Z,21.27
2018-02-23T13:44:33.810Z,22.10
2018-02-23T13:47:02.673Z,22.05
2018-02-23T13:49:31.737Z,22.14
2018-02-23T13:52:00.762Z,22.40
2018-02-23T13:54:29.696Z,22.70
2018-02-23T13:59:01.692Z,22.91
2018-02-23T14:04:15.981Z,23.37
2018-02-23T14:06:48.562Z,23.42
2018-02-23T14:09:17.607Z,23.35
2018-02-23T14:11:46.691Z,23.37
2018-02-23T14:17:29.051Z,23.43
2018-02-23T14:20:48.066Z,23.57
2018-02-23T14:23:17.446Z,23.47
2018-02-23T14:25:46.691Z,23.35
2018-02-23T14:28:15.702Z,23.53
2018-02-23T14:30:44.750Z,23.70
2018-02-23T14:33:13.727Z,23.80
2018-02-23T14:35:43.283Z,23.90
2018-02-23T14:38:12.790Z,24.05
2018-02-23T14:40:41.771Z,24.23
2018-02-23T14:43:10.738Z,24.07
2018-02-23T14:45:39.639Z,24.10
2018-02-23T14:48:08.811Z,24.24
2018-02-23T14:50:49.709Z,24.08
2018-02-23T14:53:18.726Z,24.35
2018-02-23T14:55:47.944Z,24.18
2018-02-23T14:58:16.190Z,23.42
2018-02-23T15:00:45.660Z,22.25
2018-02-23T15:03:14.902Z,21.82
2018-02-23T15:05:43.271Z,21.62
2018-02-23T15:08:12.762Z,21.65
2018-02-23T15:10:42.184Z,22.53
2018-02-23T15:13:11.221Z,23.18
2018-02-23T15:15:40.247Z,23.60
2018-02-23T15:18:09.629Z,23.61
2018-02-23T15:21:23.611Z,23.56
2018-02-23T15:23:52.693Z,23.26
2018-02-23T15:26:21.753Z,23.39
2018-02-23T15:28:50.766Z,23.47
2018-02-23T15:31:31.702Z,23.84
2018-02-23T15:34:02.244Z,23.83
2018-02-23T15:36:31.721Z,23.85
2018-02-23T15:39:00.790Z,23.90
2018-02-23T15:41:30.315Z,23.27
2018-02-23T15:46:11.770Z,22.06
2018-02-23T15:52:21.554Z,21.71
2018-02-23T15:54:50.757Z,22.69
2018-02-23T16:00:02.715Z,23.49
2018-02-23T16:02:35.849Z,23.59
2018-02-23T16:05:05.678Z,23.80
2018-02-23T16:07:34.667Z,23.73
2018-02-23T16:10:03.706Z,23.65
2018-02-23T16:12:32.700Z,23.93
2018-02-23T16:16:46.653Z,23.85
2018-02-23T16:19:15.779Z,23.55
2018-02-23T16:25:15.158Z,23.69
2018-02-23T16:27:44.669Z,23.29
2018-02-23T16:32:53.520Z,21.96
2018-02-23T16:35:22.640Z,21.76
2018-02-23T16:37:51.786Z,21.65
2018-02-23T16:40:21.421Z,22.16
2018-02-23T16:42:50.625Z,23.08
2018-02-23T16:45:19.681Z,23.45
2018-02-23T16:47:48.620Z,23.53
2018-02-23T16:50:17.712Z,23.81
2018-02-23T16:52:46.700Z,23.79
2018-02-23T16:55:15.623Z,23.84
2018-02-23T16:57:44.656Z,23.82
2018-02-23T17:00:14.509Z,23.79
2018-02-23T17:02:43.464Z,23.44
2018-02-23T17:05:12.689Z,23.58
2018-02-23T17:07:41.706Z,23.56
2018-02-23T17:10:10.659Z,23.77
2018-02-23T17:12:39.623Z,23.63
2018-02-23T17:15:08.624Z,23.15
2018-02-23T17:17:37.580Z,22.36
2018-02-23T17:20:06.700Z,22.01
2018-02-23T17:22:36.254Z,21.84
2018-02-23T17:25:05.649Z,21.67
2018-02-23T17:27:34.695Z,22.09
2018-02-23T17:30:03.758Z,23.01
2018-02-23T17:32:32.706Z,23.51
2018-02-23T17:36:44.732Z,23.91
2018-02-23T17:39:13.620Z,23.95
2018-02-23T17:44:26.733Z,24.03
2018-02-23T17:46:55.652Z,24.16
2018-02-23T17:49:24.703Z,23.86
2018-02-23T17:51:53.665Z,23.92
2018-02-23T17:56:57.665Z,22.68
2018-02-23T17:59:26.630Z,22.36
2018-02-23T18:01:55.613Z,22.33
2018-02-23T18:04:24.608Z,22.19
2018-02-23T18:09:36.698Z,23.38
2018-02-23T18:12:05.628Z,23.55
2018-02-23T18:14:34.713Z,23.95
2018-02-23T18:17:03.755Z,23.88
2018-02-23T18:19:32.697Z,23.92
2018-02-23T18:22:01.640Z,24.01
2018-02-23T18:24:30.776Z,24.18
2018-02-23T18:26:59.659Z,23.45
2018-02-23T18:29:28.751Z,23.00
2018-02-23T18:31:57.852Z,22.77
2018-02-23T18:34:26.759Z,22.65
2018-02-23T18:36:55.713Z,22.42
2018-02-23T18:40:00.442Z,22.78
2018-02-23T18:42:29.439Z,23.51
2018-02-23T18:44:58.447Z,23.81
2018-02-23T18:47:27.718Z,23.86
2018-02-23T18:49:56.734Z,23.98
2018-02-23T18:52:25.681Z,23.93
2018-02-23T18:54:54.633Z,24.01
2018-02-23T18:57:24.737Z,24.09
2018-02-23T18:59:53.740Z,23.47
2018-02-23T19:02:22.626Z,23.13
2018-02-23T19:04:51.660Z,22.86
2018-02-23T19:07:20.795Z,22.58
2018-02-23T19:12:35.720Z,22.68
2018-02-23T19:15:05.615Z,23.47
2018-02-23T19:17:34.696Z,24.12
2018-02-23T19:20:03.669Z,24.18
2018-02-23T19:22:32.720Z,24.13
2018-02-23T19:25:01.717Z,24.21
2018-02-23T19:27:30.688Z,24.24
2018-02-23T19:29:59.597Z,24.23
2018-02-23T19:32:31.399Z,23.37
2018-02-23T19:35:24.691Z,22.73
2018-02-23T19:37:53.690Z,22.41
2018-02-23T19:40:23.438Z,22.34
2018-02-23T19:42:52.464Z,22.54
2018-02-23T19:45:21.637Z,23.66
2018-02-23T19:48:23.433Z,24.03
2018-02-23T19:50:53.528Z,24.19
2018-02-23T19:53:22.530Z,24.17
2018-02-23T19:56:57.636Z,24.31
2018-02-23T19:59:26.884Z,24.65
2018-02-23T20:04:36.164Z,23.55
2018-02-23T20:07:05.437Z,23.15
2018-02-23T20:11:31.704Z,22.76
2018-02-23T20:14:01.346Z,22.71
2018-02-23T20:16:30.888Z,22.95
2018-02-23T20:28:47.187Z,24.38
2018-02-23T20:31:16.831Z,24.30
2018-02-23T20:33:45.619Z,24.37
2018-02-23T20:36:14.714Z,24.44
2018-02-23T20:38:43.607Z,23.98
2018-02-23T20:41:12.712Z,23.15
2018-02-23T20:43:41.713Z,22.68
2018-02-23T20:46:10.763Z,22.41
2018-02-23T20:48:39.749Z,22.30
2018-02-23T20:51:08.646Z,22.26
2018-02-23T20:53:37.696Z,22.75
2018-02-23T20:56:07.538Z,23.59
2018-02-23T20:58:37.288Z,24.05
2018-02-23T21:01:06.206Z,24.15
2018-02-23T21:03:35.465Z,24.22
2018-02-23T21:06:04.512Z,24.38
2018-02-23T21:13:34.662Z,24.55
2018-02-23T21:16:04.712Z,24.62
2018-02-23T21:18:33.727Z,24.48
2018-02-23T21:23:31.762Z,22.68
2018-02-23T21:26:00.777Z,22.37
2018-02-23T21:28:29.786Z,22.29
2018-02-23T21:30:58.766Z,22.07
2018-02-23T21:36:19.482Z,23.49
2018-02-23T21:38:48.772Z,24.01
2018-02-23T21:41:17.772Z,24.08
2018-02-23T21:43:47.571Z,24.08
2018-02-23T21:46:16.676Z,24.14
2018-02-23T21:48:45.734Z,24.11
2018-02-23T21:51:14.849Z,24.31
2018-02-23T21:53:43.741Z,24.54
2018-02-23T21:56:13.197Z,24.64
2018-02-23T21:58:42.629Z,24.11
2018-02-23T22:11:07.659Z,22.31
2018-02-23T22:13:38.470Z,23.21
2018-02-23T22:16:07.707Z,23.88
2018-02-23T22:18:55.697Z,24.18
2018-02-23T22:21:24.770Z,24.16
2018-02-23T22:23:53.681Z,24.25
2018-02-23T22:28:16.734Z,24.30
2018-02-23T22:30:45.723Z,24.32
2018-02-23T22:33:14.697Z,24.33
2018-02-23T22:35:45.055Z,23.44
2018-02-23T22:38:13.870Z,22.89
2018-02-23T22:40:43.714Z,22.60
2018-02-23T22:43:12.860Z,22.42
2018-02-23T22:45:42.061Z,22.29
2018-02-23T22:48:11.755Z,22.42
2018-02-23T22:50:41.857Z,23.45
2018-02-23T22:53:10.854Z,23.73
2018-02-23T22:55:39.720Z,24.06
2018-02-23T22:58:08.877Z,24.23
2018-02-23T23:00:38.624Z,24.23
2018-02-23T23:03:07.681Z,24.28
2018-02-23T23:05:36.720Z,24.32
2018-02-23T23:08:05.709Z,24.37
2018-02-23T23:11:33.174Z,24.56
2018-02-23T23:15:35.426Z,23.16
2018-02-23T23:18:04.444Z,22.60
2018-02-23T23:21:40.558Z,22.28
2018-02-23T23:24:09.729Z,22.17
2018-02-23T23:26:38.688Z,22.42
2018-02-23T23:30:40.636Z,23.60
2018-02-23T23:33:09.693Z,23.81
2018-02-23T23:35:38.617Z,24.05
2018-02-23T23:38:07.694Z,24.21
2018-02-23T23:40:36.751Z,24.37
2018-02-23T23:43:05.623Z,24.31
2018-02-23T23:45:34.709Z,24.23
2018-02-23T23:48:03.705Z,23.57
2018-02-23T23:50:32.656Z,22.91
2018-02-23T23:53:01.865Z,22.64
2018-02-23T23:55:30.726Z,22.47
2018-02-23T23:57:59.659Z,22.36
